createdAt,value
2019-02-27T00:00:54.114Z,5.59
2019-02-27T00:01:54.147Z,5.52
2019-02-27T00:02:56.168Z,5.61
2019-02-27T00:03:54.083Z,5.57
2019-02-27T00:04:54.145Z,5.57
2019-02-27T00:05:54.057Z,5.55
2019-02-27T00:06:54.045Z,5.58
2019-02-27T00:07:54.710Z,5.66
2019-02-27T00:08:54.039Z,5.73
2019-02-27T00:09:54.064Z,5.87
2019-02-27T00:10:54.007Z,5.72
2019-02-27T00:11:53.992Z,5.85
2019-02-27T00:12:53.991Z,5.93
2019-02-27T00:13:57.656Z,5.91
2019-02-27T00:14:53.965Z,5.94
2019-02-27T00:15:53.951Z,6.08
2019-02-27T00:16:53.941Z,5.98
2019-02-27T00:17:53.948Z,5.98
2019-02-27T00:18:58.539Z,5.84
2019-02-27T00:19:54.953Z,5.76
2019-02-27T00:20:53.932Z,5.82
2019-02-27T00:21:53.887Z,5.76
2019-02-27T00:22:53.930Z,5.70
2019-02-27T00:23:56.654Z,5.61
2019-02-27T00:24:53.847Z,5.66
2019-02-27T00:25:53.841Z,5.59
2019-02-27T00:26:53.832Z,5.55
2019-02-27T00:27:53.872Z,5.58
2019-02-27T00:28:55.999Z,5.58
2019-02-27T00:29:53.810Z,5.70
2019-02-27T00:30:53.785Z,5.66
2019-02-27T00:31:53.822Z,5.69
2019-02-27T00:32:53.803Z,5.69
2019-02-27T00:33:53.804Z,5.70
2019-02-27T00:34:53.744Z,5.72
2019-02-27T00:35:53.751Z,5.70
2019-02-27T00:36:53.726Z,5.72
2019-02-27T00:37:53.709Z,5.65
2019-02-27T00:38:57.702Z,5.65
2019-02-27T00:39:53.744Z,5.62
2019-02-27T00:40:53.676Z,5.67
2019-02-27T00:41:53.667Z,5.58
2019-02-27T00:42:54.441Z,5.58
2019-02-27T00:43:53.638Z,5.67
2019-02-27T00:44:53.626Z,5.65
2019-02-27T00:45:53.680Z,5.62
2019-02-27T00:46:53.609Z,5.62
2019-02-27T00:47:53.826Z,5.66
2019-02-27T00:48:53.587Z,5.69
2019-02-27T00:49:53.639Z,5.52
2019-02-27T00:50:53.607Z,5.67
2019-02-27T00:51:53.612Z,5.66
2019-02-27T00:52:53.540Z,5.75
2019-02-27T00:53:55.923Z,5.69
2019-02-27T00:54:53.529Z,5.69
2019-02-27T00:55:53.513Z,5.84
2019-02-27T00:56:53.510Z,5.82
2019-02-27T00:57:54.468Z,5.76
2019-02-27T00:58:53.479Z,5.72
2019-02-27T00:59:53.467Z,5.62
2019-02-27T01:00:53.463Z,5.67
2019-02-27T01:01:53.445Z,5.52
2019-02-27T01:02:53.707Z,5.51
2019-02-27T01:03:53.494Z,5.47
2019-02-27T01:04:53.422Z,5.34
2019-02-27T01:05:53.410Z,5.39
2019-02-27T01:06:53.408Z,5.36
2019-02-27T01:07:54.210Z,5.32
2019-02-27T01:08:53.431Z,5.39
2019-02-27T01:09:53.358Z,5.27
2019-02-27T01:10:53.390Z,5.30
2019-02-27T01:11:53.340Z,5.39
2019-02-27T01:12:57.800Z,5.37
2019-02-27T01:13:54.369Z,5.41
2019-02-27T01:14:53.310Z,5.52
2019-02-27T01:15:53.291Z,5.57
2019-02-27T01:16:53.288Z,5.67
2019-02-27T01:17:55.039Z,5.55
2019-02-27T01:18:53.311Z,5.55
2019-02-27T01:19:53.294Z,5.51
2019-02-27T01:20:53.258Z,5.40
2019-02-27T01:21:53.223Z,5.40
2019-02-27T01:22:53.278Z,5.29
2019-02-27T01:23:53.213Z,5.34
2019-02-27T01:24:53.190Z,5.21
2019-02-27T01:25:56.119Z,5.21
2019-02-27T01:26:53.190Z,5.22
2019-02-27T01:27:53.161Z,5.30
2019-02-27T01:28:53.201Z,5.24
2019-02-27T01:29:53.135Z,5.33
2019-02-27T01:30:53.126Z,5.30
2019-02-27T01:31:54.970Z,5.19
2019-02-27T01:32:53.180Z,5.22
2019-02-27T01:33:53.133Z,5.15
2019-02-27T01:34:53.092Z,5.14
2019-02-27T01:35:53.116Z,5.07
2019-02-27T01:36:54.868Z,4.97
2019-02-27T01:37:53.105Z,5.11
2019-02-27T01:38:53.036Z,5.11
2019-02-27T01:39:53.026Z,5.22
2019-02-27T01:40:53.049Z,5.22
2019-02-27T01:41:55.344Z,5.22
2019-02-27T01:42:53.059Z,5.25
2019-02-27T01:43:52.988Z,5.06
2019-02-27T01:44:52.992Z,5.07
2019-02-27T01:45:54.331Z,5.09
2019-02-27T01:46:54.556Z,5.15
2019-02-27T01:47:52.942Z,5.00
2019-02-27T01:48:52.976Z,5.03
2019-02-27T01:49:52.913Z,4.91
2019-02-27T01:50:55.218Z,4.85
2019-02-27T01:51:52.921Z,4.91
2019-02-27T01:52:52.886Z,4.88
2019-02-27T01:53:52.876Z,4.96
2019-02-27T01:54:52.905Z,5.12
2019-02-27T01:55:56.218Z,5.15
2019-02-27T01:56:52.839Z,5.24
2019-02-27T01:57:52.861Z,5.19
2019-02-27T01:58:52.821Z,5.16
2019-02-27T01:59:52.806Z,5.24
2019-02-27T02:00:56.110Z,5.25
2019-02-27T02:01:52.802Z,5.22
2019-02-27T02:02:52.783Z,5.27
2019-02-27T02:03:52.779Z,5.15
2019-02-27T02:04:53.809Z,5.25
2019-02-27T02:05:52.786Z,5.22
2019-02-27T02:06:52.765Z,5.06
2019-02-27T02:07:52.759Z,5.11
2019-02-27T02:08:52.703Z,4.97
2019-02-27T02:09:55.188Z,4.91
2019-02-27T02:10:52.684Z,4.86
2019-02-27T02:11:52.691Z,4.75
2019-02-27T02:12:52.665Z,4.67
2019-02-27T02:13:52.670Z,4.67
2019-02-27T02:14:54.373Z,4.64
2019-02-27T02:15:52.693Z,4.61
2019-02-27T02:16:52.616Z,4.57
2019-02-27T02:17:52.630Z,4.63
2019-02-27T02:18:52.608Z,4.61
2019-02-27T02:19:54.286Z,4.57
2019-02-27T02:20:52.572Z,4.67
2019-02-27T02:21:52.623Z,4.57
2019-02-27T02:22:52.557Z,4.54
2019-02-27T02:23:52.539Z,4.60
2019-02-27T02:24:54.236Z,4.66
2019-02-27T02:25:52.525Z,4.74
2019-02-27T02:26:52.511Z,4.69
2019-02-27T02:27:52.555Z,4.74
2019-02-27T02:28:52.516Z,4.77
2019-02-27T02:29:53.248Z,4.78
2019-02-27T02:30:52.466Z,4.79
2019-02-27T02:31:52.454Z,4.88
2019-02-27T02:32:53.320Z,4.93
2019-02-27T02:33:52.480Z,5.00
2019-02-27T02:34:52.418Z,5.01
2019-02-27T02:35:52.509Z,4.85
2019-02-27T02:36:52.408Z,4.85
2019-02-27T02:37:52.388Z,4.78
2019-02-27T02:38:52.394Z,4.74
2019-02-27T02:39:54.663Z,4.69
2019-02-27T02:40:52.358Z,4.79
2019-02-27T02:41:52.401Z,4.64
2019-02-27T02:42:52.343Z,4.67
2019-02-27T02:43:52.325Z,4.61
2019-02-27T02:44:57.220Z,4.56
2019-02-27T02:45:53.378Z,4.51
2019-02-27T02:46:52.297Z,4.59
2019-02-27T02:47:55.429Z,4.51
2019-02-27T02:48:52.266Z,4.53
2019-02-27T02:49:52.274Z,4.57
2019-02-27T02:50:54.335Z,4.56
2019-02-27T02:51:52.245Z,4.60
2019-02-27T02:52:52.231Z,4.60
2019-02-27T02:53:52.296Z,4.60
2019-02-27T02:54:52.202Z,4.60
2019-02-27T02:55:52.200Z,4.66
2019-02-27T02:56:52.182Z,4.57
2019-02-27T02:57:52.186Z,4.72
2019-02-27T02:58:52.159Z,4.75
2019-02-27T02:59:52.213Z,4.82
2019-02-27T03:00:52.179Z,4.78
2019-02-27T03:01:52.168Z,4.82
2019-02-27T03:02:52.128Z,4.86
2019-02-27T03:03:52.118Z,4.82
2019-02-27T03:04:52.089Z,4.79
2019-02-27T03:05:58.615Z,4.72
2019-02-27T03:06:53.130Z,4.72
2019-02-27T03:07:52.064Z,4.66
2019-02-27T03:08:54.944Z,4.56
2019-02-27T03:09:52.069Z,4.60
2019-02-27T03:10:52.021Z,4.67
2019-02-27T03:11:54.591Z,4.75
2019-02-27T03:12:52.069Z,4.85
2019-02-27T03:13:51.991Z,4.93
2019-02-27T03:14:54.197Z,4.86
2019-02-27T03:15:52.011Z,4.98
2019-02-27T03:16:51.958Z,4.89
2019-02-27T03:17:54.844Z,4.94
2019-02-27T03:18:51.964Z,4.98
2019-02-27T03:19:51.937Z,5.00
2019-02-27T03:20:53.033Z,4.96
2019-02-27T03:21:51.964Z,4.91
2019-02-27T03:22:51.894Z,4.96
2019-02-27T03:23:52.569Z,5.00
2019-02-27T03:24:51.870Z,4.86
2019-02-27T03:25:51.858Z,4.89
2019-02-27T03:26:53.113Z,4.83
2019-02-27T03:27:51.877Z,4.77
2019-02-27T03:28:51.850Z,4.77
2019-02-27T03:29:53.405Z,4.71
2019-02-27T03:30:51.832Z,4.74
2019-02-27T03:31:57.776Z,4.74
2019-02-27T03:32:52.867Z,4.74
2019-02-27T03:33:51.781Z,4.72
2019-02-27T03:34:51.847Z,4.77
2019-02-27T03:35:51.749Z,4.67
2019-02-27T03:36:51.744Z,4.63
2019-02-27T03:37:51.732Z,4.63
2019-02-27T03:38:51.757Z,4.56
2019-02-27T03:39:51.726Z,4.49
2019-02-27T03:40:51.704Z,4.53
2019-02-27T03:41:58.452Z,4.56
2019-02-27T03:42:52.737Z,4.46
2019-02-27T03:43:51.708Z,4.56
2019-02-27T03:44:55.884Z,4.51
2019-02-27T03:45:52.649Z,4.49
2019-02-27T03:46:51.628Z,4.56
2019-02-27T03:47:52.165Z,4.59
2019-02-27T03:48:51.661Z,4.53
2019-02-27T03:49:51.601Z,4.53
2019-02-27T03:50:51.636Z,4.57
2019-02-27T03:51:51.574Z,4.56
2019-02-27T03:52:51.601Z,4.59
2019-02-27T03:53:51.595Z,4.54
2019-02-27T03:54:56.986Z,4.60
2019-02-27T03:55:52.592Z,4.54
2019-02-27T03:56:51.519Z,4.57
2019-02-27T03:57:54.921Z,4.49
2019-02-27T03:58:51.499Z,4.48
2019-02-27T03:59:51.490Z,4.49
2019-02-27T04:00:53.734Z,4.43
2019-02-27T04:01:51.515Z,4.42
2019-02-27T04:02:51.477Z,4.43
2019-02-27T04:03:55.330Z,4.39
2019-02-27T04:04:51.440Z,4.31
2019-02-27T04:05:51.423Z,4.31
2019-02-27T04:06:53.019Z,4.31
2019-02-27T04:07:51.447Z,4.38
2019-02-27T04:08:51.396Z,4.42
2019-02-27T04:09:55.053Z,4.36
2019-02-27T04:10:51.378Z,4.24
2019-02-27T04:11:51.347Z,4.24
2019-02-27T04:12:52.367Z,4.26
2019-02-27T04:13:51.340Z,4.34
2019-02-27T04:14:51.316Z,4.36
2019-02-27T04:15:53.680Z,4.35
2019-02-27T04:16:51.302Z,4.45
2019-02-27T04:17:52.249Z,4.38
2019-02-27T04:18:51.282Z,4.53
2019-02-27T04:19:51.264Z,4.51
2019-02-27T04:20:51.320Z,4.46
2019-02-27T04:21:51.306Z,4.49
2019-02-27T04:22:51.236Z,4.48
2019-02-27T04:23:51.215Z,4.31
2019-02-27T04:24:56.109Z,4.45
2019-02-27T04:25:52.197Z,4.48
2019-02-27T04:26:51.202Z,4.59
2019-02-27T04:27:55.251Z,4.54
2019-02-27T04:28:51.159Z,4.54
2019-02-27T04:29:51.161Z,4.53
2019-02-27T04:30:51.979Z,4.59
2019-02-27T04:31:51.129Z,4.56
2019-02-27T04:32:51.128Z,4.56
2019-02-27T04:33:51.156Z,4.57
2019-02-27T04:34:51.100Z,4.57
2019-02-27T04:35:51.171Z,4.51
2019-02-27T04:36:51.071Z,4.34
2019-02-27T04:37:53.848Z,4.38
2019-02-27T04:38:51.051Z,4.31
2019-02-27T04:39:51.058Z,4.39
2019-02-27T04:40:51.068Z,4.30
2019-02-27T04:41:52.046Z,4.23
2019-02-27T04:42:51.064Z,4.36
2019-02-27T04:43:50.993Z,4.27
2019-02-27T04:44:50.991Z,4.26
2019-02-27T04:45:50.981Z,4.34
2019-02-27T04:46:54.825Z,4.24
2019-02-27T04:47:50.950Z,4.30
2019-02-27T04:48:51.022Z,4.26
2019-02-27T04:49:50.937Z,4.26
2019-02-27T04:50:50.927Z,4.13
2019-02-27T04:51:51.161Z,4.16
2019-02-27T04:52:50.894Z,4.23
2019-02-27T04:53:50.891Z,4.23
2019-02-27T04:54:50.986Z,4.24
2019-02-27T04:55:51.318Z,4.23
2019-02-27T04:56:50.848Z,4.21
2019-02-27T04:57:50.886Z,4.24
2019-02-27T04:58:50.829Z,4.18
2019-02-27T04:59:52.323Z,4.20
2019-02-27T05:00:50.849Z,4.17
2019-02-27T05:01:50.842Z,4.08
2019-02-27T05:02:53.433Z,4.09
2019-02-27T05:03:50.788Z,4.02
2019-02-27T05:04:50.775Z,4.00
2019-02-27T05:05:50.760Z,4.02
2019-02-27T05:06:50.755Z,4.06
2019-02-27T05:07:54.144Z,4.05
2019-02-27T05:08:50.717Z,4.05
2019-02-27T05:09:50.746Z,4.13
2019-02-27T05:10:50.747Z,4.12
2019-02-27T05:11:50.686Z,4.05
2019-02-27T05:12:50.681Z,4.09
2019-02-27T05:13:54.102Z,4.09
2019-02-27T05:14:50.659Z,4.16
2019-02-27T05:15:50.705Z,4.00
2019-02-27T05:16:50.629Z,4.02
2019-02-27T05:17:53.048Z,4.02
2019-02-27T05:18:50.612Z,4.02
2019-02-27T05:19:52.055Z,4.06
2019-02-27T05:20:50.599Z,4.23
2019-02-27T05:21:52.451Z,4.30
2019-02-27T05:22:50.621Z,4.26
2019-02-27T05:23:50.589Z,4.23
2019-02-27T05:24:50.541Z,4.34
2019-02-27T05:25:50.537Z,4.41
2019-02-27T05:26:50.518Z,4.51
2019-02-27T05:27:50.506Z,4.54
2019-02-27T05:28:50.562Z,4.57
2019-02-27T05:29:50.544Z,4.64
2019-02-27T05:30:50.479Z,4.61
2019-02-27T05:31:53.250Z,4.51
2019-02-27T05:32:50.466Z,4.51
2019-02-27T05:33:50.441Z,4.59
2019-02-27T05:34:50.564Z,4.61
2019-02-27T05:35:50.482Z,4.64
2019-02-27T05:36:50.424Z,4.57
2019-02-27T05:37:50.402Z,4.63
2019-02-27T05:38:50.391Z,4.56
2019-02-27T05:39:51.145Z,4.59
2019-02-27T05:40:50.769Z,4.46
2019-02-27T05:41:50.370Z,4.38
2019-02-27T05:42:50.401Z,4.39
2019-02-27T05:43:50.329Z,4.46
2019-02-27T05:44:50.319Z,4.45
2019-02-27T05:45:50.314Z,4.48
2019-02-27T05:46:50.349Z,4.57
2019-02-27T05:47:50.290Z,4.45
2019-02-27T05:48:50.885Z,4.43
2019-02-27T05:49:50.317Z,4.45
2019-02-27T05:50:50.287Z,4.45
2019-02-27T05:51:50.244Z,4.41
2019-02-27T05:52:50.230Z,4.38
2019-02-27T05:53:50.270Z,4.34
2019-02-27T05:54:50.219Z,4.26
2019-02-27T05:55:50.210Z,4.34
2019-02-27T05:56:50.345Z,4.34
2019-02-27T05:57:50.179Z,4.43
2019-02-27T05:58:50.167Z,4.38
2019-02-27T05:59:50.208Z,4.30
2019-02-27T06:00:50.151Z,4.34
2019-02-27T06:01:50.150Z,4.36
2019-02-27T06:02:50.151Z,4.35
2019-02-27T06:03:52.298Z,4.31
2019-02-27T06:04:50.166Z,4.24
2019-02-27T06:05:50.123Z,4.30
2019-02-27T06:06:50.080Z,4.24
2019-02-27T06:07:50.085Z,4.21
2019-02-27T06:08:50.067Z,4.26
2019-02-27T06:09:50.115Z,4.31
2019-02-27T06:10:55.222Z,4.27
2019-02-27T06:11:51.053Z,4.23
2019-02-27T06:12:50.015Z,4.24
2019-02-27T06:13:50.000Z,4.27
2019-02-27T06:14:49.996Z,4.21
2019-02-27T06:15:49.984Z,4.21
2019-02-27T06:16:50.037Z,4.16
2019-02-27T06:17:50.009Z,4.10
2019-02-27T06:18:49.960Z,4.09
2019-02-27T06:19:49.985Z,4.06
2019-02-27T06:20:49.932Z,4.20
2019-02-27T06:21:49.920Z,4.17
2019-02-27T06:22:49.897Z,4.17
2019-02-27T06:23:49.931Z,4.18
2019-02-27T06:24:49.905Z,4.31
2019-02-27T06:25:49.946Z,4.34
2019-02-27T06:26:49.863Z,4.38
2019-02-27T06:27:49.971Z,4.34
2019-02-27T06:28:49.843Z,4.36
2019-02-27T06:29:49.831Z,4.43
2019-02-27T06:30:49.837Z,4.41
2019-02-27T06:31:49.813Z,4.35
2019-02-27T06:32:49.925Z,4.35
2019-02-27T06:33:49.787Z,4.35
2019-02-27T06:34:49.772Z,4.49
2019-02-27T06:35:49.941Z,4.49
2019-02-27T06:36:49.745Z,4.48
2019-02-27T06:37:50.784Z,4.34
2019-02-27T06:38:49.722Z,4.31
2019-02-27T06:39:49.716Z,4.23
2019-02-27T06:40:49.716Z,4.31
2019-02-27T06:41:50.392Z,4.28
2019-02-27T06:42:53.447Z,4.39
2019-02-27T06:43:49.677Z,4.53
2019-02-27T06:44:49.657Z,4.43
2019-02-27T06:45:49.650Z,4.46
2019-02-27T06:46:51.086Z,4.48
2019-02-27T06:47:49.633Z,4.54
2019-02-27T06:48:49.626Z,4.61
2019-02-27T06:49:51.982Z,4.57
2019-02-27T06:50:50.197Z,4.60
2019-02-27T06:51:49.589Z,4.59
2019-02-27T06:52:49.693Z,4.51
2019-02-27T06:53:49.566Z,4.45
2019-02-27T06:54:51.921Z,4.49
2019-02-27T06:55:49.734Z,4.49
2019-02-27T06:56:49.550Z,4.49
2019-02-27T06:57:49.558Z,4.60
2019-02-27T06:58:50.105Z,4.61
2019-02-27T06:59:49.564Z,4.63
2019-02-27T07:00:49.519Z,4.59
2019-02-27T07:01:49.479Z,4.60
2019-02-27T07:02:49.455Z,4.63
2019-02-27T07:03:49.449Z,4.71
2019-02-27T07:04:49.441Z,4.79
2019-02-27T07:05:49.477Z,4.83
2019-02-27T07:06:49.419Z,4.93
2019-02-27T07:07:49.432Z,5.04
2019-02-27T07:08:49.414Z,5.04
2019-02-27T07:09:49.393Z,4.94
2019-02-27T07:10:49.442Z,5.06
2019-02-27T07:11:49.418Z,5.00
2019-02-27T07:12:49.387Z,4.91
2019-02-27T07:13:49.353Z,4.93
2019-02-27T07:14:49.326Z,4.94
2019-02-27T07:15:49.324Z,4.88
2019-02-27T07:16:49.322Z,4.94
2019-02-27T07:17:49.351Z,4.94
2019-02-27T07:18:49.286Z,4.94
2019-02-27T07:19:49.724Z,4.94
2019-02-27T07:20:49.322Z,4.97
2019-02-27T07:21:49.261Z,5.07
2019-02-27T07:22:49.258Z,5.09
2019-02-27T07:23:49.291Z,5.11
2019-02-27T07:24:49.279Z,5.06
2019-02-27T07:25:49.218Z,5.12
2019-02-27T07:26:50.268Z,5.18
2019-02-27T07:27:49.200Z,5.18
2019-02-27T07:28:49.215Z,5.27
2019-02-27T07:29:49.260Z,5.27
2019-02-27T07:30:49.167Z,5.25
2019-02-27T07:31:49.556Z,5.34
2019-02-27T07:32:49.151Z,5.36
2019-02-27T07:33:49.235Z,5.54
2019-02-27T07:34:49.790Z,5.44
2019-02-27T07:35:49.103Z,5.55
2019-02-27T07:36:49.108Z,5.55
2019-02-27T07:37:49.092Z,5.66
2019-02-27T07:38:49.455Z,5.65
2019-02-27T07:39:49.067Z,5.59
2019-02-27T07:40:49.051Z,5.65
2019-02-27T07:41:49.060Z,5.75
2019-02-27T07:42:49.072Z,5.82
2019-02-27T07:43:49.047Z,5.79
2019-02-27T07:44:49.009Z,5.88
2019-02-27T07:45:49.005Z,5.87
2019-02-27T07:46:48.991Z,5.91
2019-02-27T07:47:48.978Z,5.98
2019-02-27T07:48:49.010Z,6.00
2019-02-27T07:49:48.953Z,5.97
2019-02-27T07:50:49.343Z,6.03
2019-02-27T07:51:49.054Z,5.97
2019-02-27T07:52:49.054Z,5.97
2019-02-27T07:53:51.464Z,5.98
2019-02-27T07:54:48.938Z,5.97
2019-02-27T07:55:48.962Z,5.95
2019-02-27T07:56:48.950Z,6.02
2019-02-27T07:57:48.882Z,6.11
2019-02-27T07:58:48.954Z,6.08
2019-02-27T07:59:48.873Z,6.12
2019-02-27T08:00:49.829Z,6.13
2019-02-27T08:01:48.823Z,6.16
2019-02-27T08:02:48.816Z,6.16
2019-02-27T08:03:48.803Z,6.15
2019-02-27T08:04:48.809Z,6.32
2019-02-27T08:05:48.785Z,6.25
2019-02-27T08:06:49.039Z,6.31
2019-02-27T08:07:49.754Z,6.46
2019-02-27T08:08:48.779Z,6.46
2019-02-27T08:09:48.801Z,6.47
2019-02-27T08:10:48.716Z,6.42
2019-02-27T08:11:48.800Z,6.42
2019-02-27T08:12:48.697Z,6.47
2019-02-27T08:13:48.686Z,6.45
2019-02-27T08:14:48.700Z,6.53
2019-02-27T08:15:49.160Z,6.64
2019-02-27T08:16:48.663Z,6.47
2019-02-27T08:17:48.731Z,6.55
2019-02-27T08:18:48.683Z,6.63
2019-02-27T08:19:48.627Z,6.71
2019-02-27T08:20:48.610Z,6.74
2019-02-27T08:21:48.599Z,6.74
2019-02-27T08:22:49.684Z,6.73
2019-02-27T08:23:48.588Z,6.86
2019-02-27T08:24:48.624Z,6.91
2019-02-27T08:25:48.556Z,7.01
2019-02-27T08:26:49.201Z,6.96
2019-02-27T08:27:48.557Z,7.04
2019-02-27T08:28:48.533Z,7.03
2019-02-27T08:29:48.525Z,7.03
2019-02-27T08:30:48.581Z,7.04
2019-02-27T08:31:48.498Z,7.15
2019-02-27T08:32:48.490Z,7.22
2019-02-27T08:33:48.485Z,7.25
2019-02-27T08:34:48.475Z,7.43
2019-02-27T08:35:48.498Z,7.43
2019-02-27T08:36:48.457Z,7.47
2019-02-27T08:37:48.482Z,7.46
2019-02-27T08:38:48.420Z,7.52
2019-02-27T08:39:48.469Z,7.52
2019-02-27T08:40:48.525Z,7.49
2019-02-27T08:41:48.378Z,7.55
2019-02-27T08:42:48.379Z,7.64
2019-02-27T08:43:48.362Z,7.60
2019-02-27T08:44:48.537Z,7.66
2019-02-27T08:45:48.421Z,7.69
2019-02-27T08:46:48.342Z,7.78
2019-02-27T08:47:48.383Z,7.83
2019-02-27T08:48:50.191Z,7.84
2019-02-27T08:49:49.184Z,7.98
2019-02-27T08:50:48.387Z,8.05
2019-02-27T08:51:48.286Z,7.99
2019-02-27T08:52:51.518Z,8.04
2019-02-27T08:53:48.259Z,8.13
2019-02-27T08:54:48.290Z,8.16
2019-02-27T08:55:48.261Z,8.21
2019-02-27T08:56:48.226Z,8.20
2019-02-27T08:57:49.877Z,8.19
2019-02-27T08:58:48.212Z,8.29
2019-02-27T08:59:48.179Z,8.28
2019-02-27T09:00:48.177Z,8.29
2019-02-27T09:01:48.176Z,8.47
2019-02-27T09:02:48.194Z,8.41
2019-02-27T09:03:48.135Z,8.49
2019-02-27T09:04:48.150Z,8.60
2019-02-27T09:05:48.148Z,8.65
2019-02-27T09:06:48.123Z,8.70
2019-02-27T09:07:48.108Z,8.74
2019-02-27T09:08:48.155Z,8.74
2019-02-27T09:09:51.416Z,8.86
2019-02-27T09:10:48.127Z,8.86
2019-02-27T09:11:48.063Z,8.90
2019-02-27T09:12:48.854Z,8.93
2019-02-27T09:13:48.094Z,9.03
2019-02-27T09:14:48.037Z,9.12
2019-02-27T09:15:48.076Z,9.14
2019-02-27T09:16:48.018Z,9.14
2019-02-27T09:17:47.986Z,9.19
2019-02-27T09:18:48.024Z,9.26
2019-02-27T09:19:47.988Z,9.27
2019-02-27T09:20:47.949Z,9.30
2019-02-27T09:21:47.977Z,9.32
2019-02-27T09:22:47.931Z,9.50
2019-02-27T09:23:47.911Z,9.55
2019-02-27T09:24:47.908Z,9.60
2019-02-27T09:25:47.893Z,9.69
2019-02-27T09:26:47.951Z,9.69
2019-02-27T09:27:47.940Z,9.72
2019-02-27T09:28:47.885Z,9.80
2019-02-27T09:29:49.376Z,9.78
2019-02-27T09:30:47.837Z,9.90
2019-02-27T09:31:50.790Z,9.87
2019-02-27T09:32:47.943Z,9.96
2019-02-27T09:33:47.824Z,10.05
2019-02-27T09:34:47.800Z,10.03
2019-02-27T09:35:47.772Z,10.12
2019-02-27T09:36:49.171Z,10.26
2019-02-27T09:37:48.467Z,10.34
2019-02-27T09:38:47.807Z,10.36
2019-02-27T09:39:47.746Z,10.41
2019-02-27T09:40:47.741Z,10.61
2019-02-27T09:41:47.758Z,10.91
2019-02-27T09:42:50.234Z,11.09
2019-02-27T09:43:48.697Z,11.12
2019-02-27T09:44:47.675Z,11.16
2019-02-27T09:45:47.677Z,11.45
2019-02-27T09:46:49.916Z,11.48
2019-02-27T09:47:47.659Z,11.59
2019-02-27T09:48:47.816Z,11.71
2019-02-27T09:49:47.648Z,11.76
2019-02-27T09:50:48.946Z,11.80
2019-02-27T09:51:47.641Z,11.87
2019-02-27T09:52:47.593Z,11.77
2019-02-27T09:53:47.571Z,11.80
2019-02-27T09:54:47.689Z,11.84
2019-02-27T09:55:47.568Z,11.79
2019-02-27T09:56:47.543Z,11.74
2019-02-27T09:57:47.540Z,11.74
2019-02-27T09:58:47.525Z,11.79
2019-02-27T09:59:47.511Z,11.73
2019-02-27T10:00:47.562Z,11.80
2019-02-27T10:01:47.487Z,11.91
2019-02-27T10:02:47.471Z,12.10
2019-02-27T10:03:47.496Z,11.93
2019-02-27T10:04:47.453Z,12.00
2019-02-27T10:05:47.791Z,12.13
2019-02-27T10:06:47.485Z,12.14
2019-02-27T10:07:48.461Z,12.13
2019-02-27T10:08:47.414Z,12.13
2019-02-27T10:09:47.415Z,12.18
2019-02-27T10:10:47.377Z,12.18
2019-02-27T10:11:47.369Z,12.28
2019-02-27T10:12:47.408Z,12.43
2019-02-27T10:13:47.355Z,12.38
2019-02-27T10:14:47.908Z,12.44
2019-02-27T10:15:47.336Z,12.43
2019-02-27T10:16:47.314Z,12.41
2019-02-27T10:17:47.331Z,12.54
2019-02-27T10:18:47.342Z,12.58
2019-02-27T10:19:47.297Z,12.59
2019-02-27T10:20:47.268Z,12.68
2019-02-27T10:21:47.614Z,12.73
2019-02-27T10:22:47.270Z,12.91
2019-02-27T10:23:47.309Z,12.87
2019-02-27T10:24:47.236Z,12.98
2019-02-27T10:25:47.242Z,13.05
2019-02-27T10:26:47.261Z,13.09
2019-02-27T10:27:47.432Z,13.21
2019-02-27T10:28:47.281Z,13.40
2019-02-27T10:29:47.899Z,13.36
2019-02-27T10:30:50.042Z,13.40
2019-02-27T10:31:47.151Z,13.54
2019-02-27T10:32:47.168Z,13.46
2019-02-27T10:33:47.160Z,13.51
2019-02-27T10:34:47.123Z,13.63
2019-02-27T10:35:47.100Z,13.67
2019-02-27T10:36:47.790Z,13.64
2019-02-27T10:37:50.450Z,13.85
2019-02-27T10:38:47.101Z,13.88
2019-02-27T10:39:47.123Z,13.82
2019-02-27T10:40:47.051Z,13.96
2019-02-27T10:41:49.749Z,13.96
2019-02-27T10:42:47.087Z,13.96
2019-02-27T10:43:47.027Z,13.93
2019-02-27T10:44:46.996Z,13.97
2019-02-27T10:45:49.313Z,13.97
2019-02-27T10:46:46.984Z,14.04
2019-02-27T10:47:47.002Z,14.08
2019-02-27T10:48:47.628Z,14.15
2019-02-27T10:49:46.945Z,14.16
2019-02-27T10:50:46.932Z,14.30
2019-02-27T10:51:46.923Z,14.33
2019-02-27T10:52:46.910Z,14.33
2019-02-27T10:53:46.955Z,14.36
2019-02-27T10:54:46.881Z,14.48
2019-02-27T10:55:49.335Z,14.55
2019-02-27T10:56:46.898Z,14.58
2019-02-27T10:57:46.898Z,14.67
2019-02-27T10:58:47.647Z,14.69
2019-02-27T10:59:46.904Z,14.71
2019-02-27T11:00:46.842Z,14.83
2019-02-27T11:01:46.808Z,14.87
2019-02-27T11:02:47.908Z,14.99
2019-02-27T11:03:46.943Z,14.99
2019-02-27T11:04:46.795Z,15.05
2019-02-27T11:05:46.760Z,15.08
2019-02-27T11:06:46.769Z,15.14
2019-02-27T11:07:46.765Z,15.25
2019-02-27T11:08:46.741Z,15.33
2019-02-27T11:09:46.791Z,15.35
2019-02-27T11:10:46.728Z,15.40
2019-02-27T11:11:48.641Z,15.45
2019-02-27T11:12:46.697Z,15.54
2019-02-27T11:13:48.454Z,15.54
2019-02-27T11:14:47.716Z,15.60
2019-02-27T11:15:46.735Z,15.73
2019-02-27T11:16:46.641Z,15.83
2019-02-27T11:17:46.633Z,15.93
2019-02-27T11:18:46.680Z,16.06
2019-02-27T11:19:46.626Z,16.16
2019-02-27T11:20:46.638Z,16.25
2019-02-27T11:21:46.642Z,16.34
2019-02-27T11:22:46.592Z,16.28
2019-02-27T11:23:46.561Z,16.28
2019-02-27T11:24:49.035Z,16.42
2019-02-27T11:25:46.535Z,16.52
2019-02-27T11:26:46.532Z,16.52
2019-02-27T11:27:46.504Z,16.51
2019-02-27T11:28:47.846Z,16.59
2019-02-27T11:29:46.511Z,16.57
2019-02-27T11:30:46.615Z,16.59
2019-02-27T11:31:46.466Z,16.57
2019-02-27T11:32:46.526Z,16.62
2019-02-27T11:33:46.462Z,16.67
2019-02-27T11:34:48.430Z,16.67
2019-02-27T11:35:46.417Z,16.65
2019-02-27T11:36:46.466Z,16.64
2019-02-27T11:37:47.537Z,16.76
2019-02-27T11:38:46.427Z,16.91
2019-02-27T11:39:46.417Z,17.07
2019-02-27T11:40:46.789Z,17.14
2019-02-27T11:41:48.482Z,17.12
2019-02-27T11:42:46.358Z,17.24
2019-02-27T11:43:46.331Z,17.24
2019-02-27T11:44:49.451Z,17.13
2019-02-27T11:45:46.315Z,17.20
2019-02-27T11:46:46.358Z,17.38
2019-02-27T11:47:48.125Z,17.52
2019-02-27T11:48:46.436Z,17.69
2019-02-27T11:49:46.273Z,17.66
2019-02-27T11:50:46.317Z,17.68
2019-02-27T11:51:46.433Z,17.65
2019-02-27T11:52:49.046Z,17.66
2019-02-27T11:53:46.219Z,17.62
2019-02-27T11:54:46.246Z,17.62
2019-02-27T11:55:47.101Z,17.54
2019-02-27T11:56:47.566Z,17.65
2019-02-27T11:57:46.182Z,17.59
2019-02-27T11:58:46.180Z,17.50
2019-02-27T11:59:46.960Z,17.62
2019-02-27T12:00:46.262Z,17.72
2019-02-27T12:01:46.155Z,17.76
2019-02-27T12:02:46.131Z,17.72
2019-02-27T12:03:46.571Z,17.90
2019-02-27T12:04:46.182Z,17.91
2019-02-27T12:05:46.925Z,18.08
2019-02-27T12:06:47.169Z,18.21
2019-02-27T12:07:51.194Z,18.31
2019-02-27T12:08:47.104Z,18.30
2019-02-27T12:09:46.037Z,18.31
2019-02-27T12:10:46.053Z,18.28
2019-02-27T12:11:48.742Z,18.43
2019-02-27T12:12:46.045Z,18.48
2019-02-27T12:13:46.046Z,18.56
2019-02-27T12:14:45.990Z,18.54
2019-02-27T12:15:45.971Z,18.58
2019-02-27T12:16:48.607Z,18.51
2019-02-27T12:17:47.085Z,18.56
2019-02-27T12:18:45.970Z,18.42
2019-02-27T12:19:45.930Z,18.49
2019-02-27T12:20:45.924Z,18.58
2019-02-27T12:21:45.976Z,18.63
2019-02-27T12:22:45.922Z,18.74
2019-02-27T12:23:45.910Z,18.70
2019-02-27T12:24:45.918Z,18.82
2019-02-27T12:25:46.133Z,18.75
2019-02-27T12:26:45.861Z,18.79
2019-02-27T12:27:49.810Z,18.76
2019-02-27T12:28:47.512Z,18.86
2019-02-27T12:29:45.823Z,18.86
2019-02-27T12:30:45.899Z,18.96
2019-02-27T12:31:48.382Z,18.93
2019-02-27T12:32:45.865Z,19.04
2019-02-27T12:33:49.542Z,19.07
2019-02-27T12:34:48.297Z,19.04
2019-02-27T12:35:47.153Z,19.13
2019-02-27T12:36:45.816Z,19.16
2019-02-27T12:37:45.818Z,19.27
2019-02-27T12:38:45.788Z,19.45
2019-02-27T12:39:47.242Z,19.35
2019-02-27T12:40:45.719Z,19.42
2019-02-27T12:41:45.687Z,19.49
2019-02-27T12:42:45.679Z,19.42
2019-02-27T12:43:45.720Z,19.42
2019-02-27T12:44:45.725Z,19.32
2019-02-27T12:45:45.655Z,19.45
2019-02-27T12:46:45.634Z,19.47
2019-02-27T12:47:45.632Z,19.59
2019-02-27T12:48:46.435Z,19.52
2019-02-27T12:49:45.785Z,19.64
2019-02-27T12:50:45.598Z,19.79
2019-02-27T12:51:45.669Z,19.71
2019-02-27T12:52:47.941Z,19.78
2019-02-27T12:53:45.577Z,19.84
2019-02-27T12:54:45.567Z,19.87
2019-02-27T12:55:45.536Z,19.99
2019-02-27T12:56:45.522Z,20.08
2019-02-27T12:57:45.545Z,20.30
2019-02-27T12:58:45.592Z,20.34
2019-02-27T12:59:45.491Z,20.42
2019-02-27T13:00:45.524Z,20.49
2019-02-27T13:01:45.640Z,20.58
2019-02-27T13:02:45.471Z,20.70
2019-02-27T13:03:45.456Z,20.75
2019-02-27T13:04:45.495Z,20.75
2019-02-27T13:05:45.454Z,20.80
2019-02-27T13:06:45.415Z,20.74
2019-02-27T13:07:45.558Z,20.74
2019-02-27T13:08:45.447Z,20.79
2019-02-27T13:09:45.388Z,20.83
2019-02-27T13:10:45.389Z,20.88
2019-02-27T13:11:45.368Z,20.93